createdAt,value
2022-09-29T00:01:46.314Z,7.20
2022-09-29T00:04:47.495Z,7.20
2022-09-29T00:07:48.430Z,7.20
2022-09-29T00:10:49.569Z,7.30
2022-09-29T00:13:50.423Z,7.30
2022-09-29T00:16:53.215Z,7.30
2022-09-29T00:19:54.678Z,7.20
2022-09-29T00:22:55.473Z,7.30
2022-09-29T00:26:02.804Z,7.30
2022-09-29T00:29:04.320Z,7.30
2022-09-29T00:32:05.521Z,7.30
2022-09-29T00:35:08.633Z,7.30
2022-09-29T00:38:09.642Z,7.30
2022-09-29T00:41:18.394Z,7.30
2022-09-29T00:44:21.857Z,7.30
2022-09-29T00:47:23.672Z,7.30
2022-09-29T00:50:46.901Z,7.30
2022-09-29T00:53:49.602Z,7.30
2022-09-29T00:56:51.692Z,7.30
2022-09-29T01:00:02.405Z,7.30
2022-09-29T01:03:13.646Z,7.30
2022-09-29T01:06:25.749Z,7.30
2022-09-29T01:09:37.662Z,7.20
2022-09-29T01:12:38.792Z,7.30
2022-09-29T01:15:39.931Z,7.30
2022-09-29T01:18:42.777Z,7.30
2022-09-29T01:22:19.900Z,7.30
2022-09-29T01:25:51.386Z,7.20
2022-09-29T01:29:47.258Z,7.20
2022-09-29T01:33:12.828Z,7.10
2022-09-29T01:36:50.094Z,7.20
2022-09-29T01:40:05.001Z,7.20
2022-09-29T01:43:22.310Z,7.20
2022-09-29T01:46:36.142Z,7.10
2022-09-29T01:49:43.493Z,7.10
2022-09-29T01:52:52.810Z,7.00
2022-09-29T01:56:01.214Z,7.10
2022-09-29T01:59:22.636Z,7.00
2022-09-29T02:02:36.189Z,7.00
2022-09-29T02:05:56.306Z,7.00
2022-09-29T02:09:03.997Z,7.00
2022-09-29T02:12:08.766Z,7.00
2022-09-29T02:15:19.215Z,7.00
2022-09-29T02:18:30.154Z,7.00
2022-09-29T02:21:31.134Z,7.00
2022-09-29T02:24:32.503Z,7.00
2022-09-29T02:27:34.013Z,7.00
2022-09-29T02:30:36.069Z,7.00
2022-09-29T02:33:36.850Z,7.00
2022-09-29T02:37:02.798Z,6.90
2022-09-29T02:40:31.949Z,7.00
2022-09-29T02:43:54.589Z,7.00
2022-09-29T02:48:07.080Z,6.90
2022-09-29T02:51:27.507Z,6.90
2022-09-29T02:54:42.855Z,7.00
2022-09-29T02:58:15.640Z,7.00
2022-09-29T03:01:16.946Z,7.00
2022-09-29T03:04:22.083Z,6.90
2022-09-29T03:07:22.899Z,6.90
2022-09-29T03:10:28.001Z,6.90
2022-09-29T03:13:30.970Z,6.90
2022-09-29T03:16:31.829Z,6.90
2022-09-29T03:19:32.828Z,6.90
2022-09-29T03:22:33.744Z,7.00
2022-09-29T03:25:35.116Z,7.00
2022-09-29T03:28:36.776Z,7.00
2022-09-29T03:31:40.887Z,7.00
2022-09-29T03:34:41.709Z,7.00
2022-09-29T03:37:42.329Z,7.00
2022-09-29T03:40:43.160Z,7.00
2022-09-29T03:43:44.546Z,7.10
2022-09-29T03:46:46.338Z,7.10
2022-09-29T03:49:47.178Z,7.10
2022-09-29T03:52:47.972Z,7.10
2022-09-29T03:55:50.256Z,7.10
2022-09-29T03:58:51.061Z,7.10
2022-09-29T04:01:51.893Z,7.10
2022-09-29T04:04:53.034Z,7.10
2022-09-29T04:07:53.587Z,7.10
2022-09-29T04:10:54.304Z,7.10
2022-09-29T04:13:55.118Z,7.10
2022-09-29T04:16:55.952Z,7.10
2022-09-29T04:19:57.771Z,7.10
2022-09-29T04:23:00.658Z,7.10
2022-09-29T04:26:02.477Z,7.10
2022-09-29T04:29:03.859Z,7.10
2022-09-29T04:32:06.153Z,7.00
2022-09-29T04:35:08.951Z,7.00
2022-09-29T04:38:10.263Z,7.00
2022-09-29T04:41:11.506Z,7.00
2022-09-29T04:44:12.300Z,7.00
2022-09-29T04:47:13.875Z,7.00
2022-09-29T04:50:14.756Z,7.00
2022-09-29T04:53:15.675Z,7.00
2022-09-29T04:56:16.387Z,7.10
2022-09-29T04:59:20.351Z,7.10
2022-09-29T05:02:21.493Z,7.00
2022-09-29T05:05:22.824Z,7.00
2022-09-29T05:08:23.517Z,7.10
2022-09-29T05:11:24.320Z,7.10
2022-09-29T05:14:25.115Z,7.10
2022-09-29T05:17:26.130Z,7.10
2022-09-29T05:20:32.343Z,7.10
2022-09-29T05:23:37.558Z,7.20
2022-09-29T05:26:38.735Z,7.20
2022-09-29T05:29:39.460Z,7.20
2022-09-29T05:32:40.210Z,7.20
2022-09-29T05:35:41.020Z,7.20
2022-09-29T05:38:41.770Z,7.30
2022-09-29T05:41:42.479Z,7.20
2022-09-29T05:44:43.156Z,7.20
2022-09-29T05:47:45.657Z,7.30
2022-09-29T05:50:46.595Z,7.30
2022-09-29T05:53:47.733Z,7.30
2022-09-29T05:56:48.728Z,7.40
2022-09-29T05:59:49.716Z,7.40
2022-09-29T06:02:50.524Z,7.50
2022-09-29T06:05:51.216Z,7.50
2022-09-29T06:08:53.283Z,7.60
2022-09-29T06:11:54.287Z,7.60
2022-09-29T06:14:55.535Z,7.70
2022-09-29T06:18:01.350Z,7.70
2022-09-29T06:21:10.108Z,7.80
2022-09-29T06:24:11.766Z,7.80
2022-09-29T06:27:12.881Z,7.80
2022-09-29T06:30:14.250Z,7.80
2022-09-29T06:33:15.527Z,7.80
2022-09-29T06:36:52.327Z,7.80
2022-09-29T06:39:52.984Z,7.90
2022-09-29T06:42:53.741Z,8.00
2022-09-29T06:45:54.564Z,8.00
2022-09-29T06:48:56.872Z,8.10
2022-09-29T06:51:57.823Z,8.20
2022-09-29T06:54:59.214Z,8.20
2022-09-29T06:58:04.111Z,8.20
2022-09-29T07:01:06.529Z,8.30
2022-09-29T07:04:08.116Z,8.30
2022-09-29T07:07:08.961Z,8.40
2022-09-29T07:10:09.893Z,8.30
2022-09-29T07:13:10.624Z,8.40
2022-09-29T07:16:14.061Z,8.40
2022-09-29T07:19:18.517Z,8.50
2022-09-29T07:22:20.151Z,8.50
2022-09-29T07:25:46.920Z,8.50
2022-09-29T07:28:44.308Z,8.60
2022-09-29T07:31:51.557Z,8.60
2022-09-29T07:34:53.666Z,8.70
2022-09-29T07:37:55.722Z,8.80
2022-09-29T07:41:07.432Z,8.80
2022-09-29T07:44:08.507Z,8.80
2022-09-29T07:47:10.088Z,8.90
2022-09-29T07:50:13.149Z,8.90
2022-09-29T07:53:15.039Z,9.00
2022-09-29T07:56:20.214Z,9.00
2022-09-29T07:59:21.085Z,9.10
2022-09-29T08:02:22.668Z,9.20
2022-09-29T08:05:24.108Z,9.30
2022-09-29T08:08:25.891Z,9.20
2022-09-29T08:11:31.543Z,9.30
2022-09-29T08:14:32.961Z,9.50
2022-09-29T08:17:34.072Z,9.50
2022-09-29T08:20:37.489Z,9.60
2022-09-29T08:23:43.586Z,9.60
2022-09-29T08:26:45.137Z,9.60
2022-09-29T08:29:47.103Z,9.70
2022-09-29T08:32:55.015Z,9.90
2022-09-29T08:36:00.051Z,10.00
2022-09-29T08:39:01.354Z,10.10
2022-09-29T08:42:26.607Z,10.30
2022-09-29T08:45:36.014Z,10.50
2022-09-29T08:48:56.462Z,10.60
2022-09-29T08:52:16.352Z,10.60
2022-09-29T08:55:21.507Z,10.80
2022-09-29T08:58:23.504Z,10.60
2022-09-29T09:01:59.450Z,10.90
2022-09-29T09:05:45.868Z,11.30
2022-09-29T09:08:52.513Z,11.30
2022-09-29T09:12:30.572Z,11.30
2022-09-29T09:15:40.216Z,11.10
2022-09-29T09:18:46.402Z,11.00
2022-09-29T09:21:58.601Z,11.10
2022-09-29T09:25:19.656Z,11.10
2022-09-29T09:28:31.192Z,11.30
2022-09-29T09:32:02.059Z,11.60
2022-09-29T09:35:46.961Z,11.70
2022-09-29T09:39:07.170Z,11.70
2022-09-29T09:42:20.130Z,11.70
2022-09-29T09:45:33.114Z,11.60
2022-09-29T09:48:50.504Z,11.50
2022-09-29T09:51:56.601Z,11.40
2022-09-29T09:55:04.986Z,11.30
2022-09-29T09:58:43.357Z,11.40
2022-09-29T10:01:45.660Z,11.50
2022-09-29T10:04:52.854Z,11.30
2022-09-29T10:07:55.543Z,11.30
2022-09-29T10:11:00.026Z,11.20
2022-09-29T10:14:26.317Z,11.30
2022-09-29T10:17:39.223Z,11.50
2022-09-29T10:20:42.024Z,11.40
2022-09-29T10:23:55.310Z,11.40
2022-09-29T10:27:01.198Z,11.30
2022-09-29T10:30:04.185Z,11.40
2022-09-29T10:33:10.475Z,11.60
2022-09-29T10:36:12.319Z,11.50
2022-09-29T10:39:32.302Z,11.50
2022-09-29T10:42:40.356Z,11.40
2022-09-29T10:45:49.099Z,11.30
2022-09-29T10:49:20.563Z,11.20
2022-09-29T10:52:28.854Z,11.20
2022-09-29T10:55:48.299Z,11.30
2022-09-29T10:59:05.773Z,11.20
2022-09-29T11:02:21.956Z,11.30
2022-09-29T11:05:23.982Z,11.30
2022-09-29T11:08:27.885Z,11.50
2022-09-29T11:11:40.278Z,11.40
2022-09-29T11:14:43.400Z,11.40
2022-09-29T11:17:51.198Z,10.90
2022-09-29T11:21:13.935Z,10.90
2022-09-29T11:24:30.219Z,11.00
2022-09-29T11:28:11.026Z,11.10
2022-09-29T11:31:36.274Z,10.80
2022-09-29T11:35:31.202Z,10.90
2022-09-29T11:39:13.406Z,10.80
2022-09-29T11:42:31.686Z,10.70
2022-09-29T11:46:24.217Z,10.20
2022-09-29T11:49:31.238Z,10.30
2022-09-29T11:53:08.382Z,10.50
2022-09-29T11:56:34.139Z,10.50
2022-09-29T12:00:11.301Z,10.80
2022-09-29T12:03:41.587Z,10.50
2022-09-29T12:06:58.222Z,10.40
2022-09-29T12:10:25.743Z,10.70
2022-09-29T12:14:05.523Z,10.30
2022-09-29T12:17:14.743Z,10.20
2022-09-29T12:20:26.960Z,10.20
2022-09-29T12:23:33.235Z,10.40
2022-09-29T12:26:35.439Z,10.50
2022-09-29T12:29:46.961Z,10.70
2022-09-29T12:33:42.703Z,11.10
2022-09-29T12:37:07.856Z,12.10
2022-09-29T12:40:33.567Z,12.00
2022-09-29T12:44:05.699Z,12.60
2022-09-29T12:47:44.501Z,12.60
2022-09-29T12:50:59.463Z,13.20
2022-09-29T12:54:03.362Z,12.10
2022-09-29T12:57:15.304Z,12.00
2022-09-29T13:00:19.052Z,12.20
2022-09-29T13:03:48.470Z,12.50
2022-09-29T13:07:15.228Z,12.90
2022-09-29T13:11:03.600Z,13.20
2022-09-29T13:14:47.149Z,12.70
2022-09-29T13:18:27.632Z,13.20
2022-09-29T13:22:30.699Z,12.90
2022-09-29T13:25:44.445Z,12.00
2022-09-29T13:29:24.247Z,12.30
2022-09-29T13:32:25.821Z,12.50
2022-09-29T13:35:27.723Z,12.30
2022-09-29T13:38:37.885Z,11.60
2022-09-29T13:41:40.460Z,11.70
2022-09-29T13:44:42.286Z,12.30
2022-09-29T13:48:04.578Z,12.90
2022-09-29T13:51:41.608Z,12.40
2022-09-29T13:54:43.303Z,11.90
2022-09-29T13:57:52.044Z,11.60
2022-09-29T14:00:54.944Z,12.00
2022-09-29T14:03:56.450Z,12.30
2022-09-29T14:07:02.851Z,11.90
2022-09-29T14:10:28.163Z,11.90
2022-09-29T14:13:45.614Z,11.90
2022-09-29T14:17:14.686Z,11.70
2022-09-29T14:20:35.554Z,11.90
2022-09-29T14:23:56.618Z,11.40
2022-09-29T14:27:20.052Z,11.20
2022-09-29T14:30:43.347Z,11.20
2022-09-29T14:33:45.207Z,11.30
2022-09-29T14:36:49.676Z,11.30
2022-09-29T14:40:10.431Z,11.30
2022-09-29T14:43:16.779Z,11.40
2022-09-29T14:47:21.171Z,11.30
2022-09-29T14:51:26.617Z,11.30
2022-09-29T14:54:27.392Z,11.10
2022-09-29T14:57:57.628Z,11.00
2022-09-29T15:01:28.478Z,11.10
2022-09-29T15:04:29.350Z,11.20
2022-09-29T15:07:30.505Z,11.40
2022-09-29T15:10:40.734Z,11.30
2022-09-29T15:13:42.064Z,11.20
2022-09-29T15:17:01.567Z,11.20
2022-09-29T15:20:34.475Z,11.20
2022-09-29T15:24:00.901Z,11.30
2022-09-29T15:27:06.860Z,11.40
2022-09-29T15:30:17.215Z,11.40
2022-09-29T15:33:39.069Z,11.40
2022-09-29T15:36:41.791Z,11.20
2022-09-29T15:39:48.875Z,11.20
2022-09-29T15:42:53.233Z,11.10
2022-09-29T15:46:02.906Z,11.10
2022-09-29T15:49:21.512Z,11.00
2022-09-29T15:52:27.502Z,11.00
2022-09-29T15:55:31.472Z,10.90
2022-09-29T15:58:44.711Z,10.80
2022-09-29T16:01:45.781Z,10.70
2022-09-29T16:04:51.632Z,10.70
2022-09-29T16:08:04.212Z,10.70
2022-09-29T16:11:09.874Z,10.50
2022-09-29T16:14:20.237Z,10.40
2022-09-29T16:17:21.779Z,10.40
2022-09-29T16:20:31.336Z,10.50
2022-09-29T16:23:50.016Z,10.50
2022-09-29T16:26:55.506Z,10.50
2022-09-29T16:30:20.469Z,10.40
2022-09-29T16:33:23.449Z,10.30
2022-09-29T16:36:29.215Z,10.30
2022-09-29T16:39:39.574Z,10.30
2022-09-29T16:42:40.983Z,10.30
2022-09-29T16:45:42.030Z,10.20
2022-09-29T16:48:46.431Z,10.20
2022-09-29T16:51:50.194Z,10.00
2022-09-29T16:54:52.512Z,10.00
2022-09-29T16:57:59.317Z,9.90
2022-09-29T17:01:00.586Z,9.90
2022-09-29T17:04:01.591Z,9.90
2022-09-29T17:07:03.462Z,9.80
2022-09-29T17:10:05.941Z,9.80
2022-09-29T17:13:16.825Z,9.80
2022-09-29T17:16:21.861Z,9.70
2022-09-29T17:19:22.986Z,9.70
2022-09-29T17:22:39.462Z,9.70
2022-09-29T17:25:44.399Z,9.60
2022-09-29T17:28:45.103Z,9.60
2022-09-29T17:31:45.882Z,9.50
2022-09-29T17:34:46.898Z,9.50
2022-09-29T17:37:48.258Z,9.50
2022-09-29T17:40:56.415Z,9.50
2022-09-29T17:43:57.486Z,9.50
2022-09-29T17:47:16.970Z,9.50
2022-09-29T17:50:36.737Z,9.40
2022-09-29T17:53:37.944Z,9.40
2022-09-29T17:56:44.108Z,9.30
2022-09-29T17:59:44.983Z,9.30
2022-09-29T18:02:46.233Z,9.30
2022-09-29T18:05:58.461Z,9.30
2022-09-29T18:08:59.907Z,9.20
2022-09-29T18:12:01.076Z,9.20
2022-09-29T18:15:02.716Z,9.20
2022-09-29T18:18:07.771Z,9.20
2022-09-29T18:21:09.187Z,9.20
2022-09-29T18:24:10.300Z,9.20
2022-09-29T18:27:14.922Z,9.20
2022-09-29T18:30:23.792Z,9.20
2022-09-29T18:33:24.759Z,9.10
2022-09-29T18:36:25.625Z,9.10
2022-09-29T18:39:26.774Z,9.20
2022-09-29T18:42:27.640Z,9.10
2022-09-29T18:45:36.019Z,9.10
2022-09-29T18:48:37.227Z,9.10
2022-09-29T18:51:39.229Z,9.10
2022-09-29T18:54:39.960Z,9.10
2022-09-29T18:57:41.570Z,9.00
2022-09-29T19:00:48.137Z,9.00
2022-09-29T19:03:49.235Z,8.90
2022-09-29T19:06:50.521Z,8.90
2022-09-29T19:09:51.397Z,8.90
2022-09-29T19:12:58.875Z,8.90
2022-09-29T19:15:59.902Z,8.90
2022-09-29T19:19:01.575Z,9.00
2022-09-29T19:22:02.541Z,8.90
2022-09-29T19:25:06.003Z,8.90
2022-09-29T19:28:07.650Z,8.90
2022-09-29T19:31:14.849Z,8.90
2022-09-29T19:34:15.921Z,8.90
2022-09-29T19:37:17.444Z,8.90
2022-09-29T19:40:27.786Z,8.90
2022-09-29T19:43:29.106Z,8.90
2022-09-29T19:46:30.029Z,8.80
2022-09-29T19:49:31.221Z,8.80
2022-09-29T19:52:32.960Z,8.80
2022-09-29T19:55:39.187Z,8.70
2022-09-29T19:58:41.340Z,8.70
2022-09-29T20:01:45.648Z,8.70
2022-09-29T20:04:46.738Z,8.70
2022-09-29T20:07:48.514Z,8.70
2022-09-29T20:10:49.481Z,8.70
2022-09-29T20:13:50.945Z,8.60
2022-09-29T20:16:56.612Z,8.60
2022-09-29T20:19:57.466Z,8.60
2022-09-29T20:22:58.107Z,8.60
2022-09-29T20:26:01.712Z,8.60
2022-09-29T20:29:04.219Z,8.60
2022-09-29T20:32:05.892Z,8.60
2022-09-29T20:35:07.156Z,8.50
2022-09-29T20:38:08.434Z,8.50
2022-09-29T20:41:10.620Z,8.50
2022-09-29T20:44:12.030Z,8.40
2022-09-29T20:47:13.160Z,8.40
2022-09-29T20:50:14.705Z,8.40
2022-09-29T20:53:15.589Z,8.40
2022-09-29T20:56:17.870Z,8.40
2022-09-29T20:59:22.934Z,8.40
2022-09-29T21:02:24.395Z,8.30
2022-09-29T21:05:25.596Z,8.30
2022-09-29T21:08:28.167Z,8.30
2022-09-29T21:11:29.587Z,8.40
2022-09-29T21:14:30.709Z,8.30
2022-09-29T21:17:31.441Z,8.30
2022-09-29T21:20:32.252Z,8.30
2022-09-29T21:23:36.957Z,8.30
2022-09-29T21:26:39.692Z,8.30
2022-09-29T21:29:40.554Z,8.30
2022-09-29T21:32:41.443Z,8.40
2022-09-29T21:35:42.416Z,8.40
2022-09-29T21:38:45.235Z,8.40
2022-09-29T21:41:46.756Z,8.30
2022-09-29T21:44:47.476Z,8.30
2022-09-29T21:48:07.176Z,8.30
2022-09-29T21:51:12.130Z,8.30
2022-09-29T21:54:23.520Z,8.30
2022-09-29T21:57:24.891Z,8.30
2022-09-29T22:00:25.820Z,8.20
2022-09-29T22:03:32.691Z,8.20
2022-09-29T22:06:35.865Z,8.10
2022-09-29T22:09:36.909Z,8.10
2022-09-29T22:12:37.773Z,8.00
2022-09-29T22:15:38.739Z,8.00
2022-09-29T22:18:42.342Z,8.00
2022-09-29T22:21:43.185Z,8.00
2022-09-29T22:24:44.049Z,8.00
2022-09-29T22:27:45.422Z,7.90
2022-09-29T22:30:45.997Z,7.90
2022-09-29T22:33:47.025Z,7.80
2022-09-29T22:36:47.837Z,7.90
2022-09-29T22:39:48.553Z,7.80
2022-09-29T22:42:49.076Z,7.90
2022-09-29T22:45:51.949Z,7.80
2022-09-29T22:48:53.268Z,7.90
2022-09-29T22:51:54.226Z,7.80
2022-09-29T22:54:55.927Z,7.80
2022-09-29T22:57:58.252Z,7.80
2022-09-29T23:01:15.435Z,7.80
2022-09-29T23:04:16.148Z,7.90
2022-09-29T23:07:17.314Z,7.80
2022-09-29T23:10:18.211Z,7.90
2022-09-29T23:13:20.988Z,7.90
2022-09-29T23:16:22.215Z,7.90
2022-09-29T23:19:23.583Z,7.90
2022-09-29T23:22:25.572Z,8.00
2022-09-29T23:25:26.712Z,8.10
2022-09-29T23:28:28.822Z,8.10
2022-09-29T23:31:30.079Z,8.10
2022-09-29T23:34:31.104Z,8.10
2022-09-29T23:37:52.904Z,8.10
2022-09-29T23:40:53.736Z,8.20
2022-09-29T23:43:56.834Z,8.20
2022-09-29T23:46:58.333Z,8.20
2022-09-29T23:49:59.505Z,8.30
2022-09-29T23:53:00.903Z,8.30
2022-09-29T23:56:02.457Z,8.30
2022-09-29T23:59:05.144Z,8.40
